createdAt,value
2018-05-06T00:00:04.649Z,101918.43
2018-05-06T00:02:32.895Z,101919.73
2018-05-06T00:05:01.166Z,101925.09
2018-05-06T00:07:30.179Z,101917.73
2018-05-06T00:09:58.443Z,101914.78
2018-05-06T00:12:26.725Z,101914.78
2018-05-06T00:14:55.001Z,101911.30
2018-05-06T00:17:23.277Z,101910.17
2018-05-06T00:19:51.537Z,101912.41
2018-05-06T00:22:19.805Z,101907.84
2018-05-06T00:24:48.916Z,101909.73
2018-05-06T00:27:17.184Z,101901.14
2018-05-06T00:29:45.447Z,101904.73
2018-05-06T00:32:13.845Z,101899.50
2018-05-06T00:34:42.104Z,101901.80
2018-05-06T00:37:10.373Z,101899.28
2018-05-06T00:39:38.619Z,101900.22
2018-05-06T00:42:06.913Z,101901.70
2018-05-06T00:44:35.202Z,101900.88
2018-05-06T00:47:03.467Z,101900.61
2018-05-06T00:49:31.794Z,101904.19
2018-05-06T00:52:00.245Z,101902.98
2018-05-06T00:54:44.418Z,101900.48
2018-05-06T00:57:12.685Z,101894.91
2018-05-06T00:59:40.956Z,101900.25
2018-05-06T01:02:10.020Z,101900.02
2018-05-06T01:04:38.488Z,101896.92
2018-05-06T01:07:06.737Z,101900.02
2018-05-06T01:09:35.003Z,101899.24
2018-05-06T01:12:03.260Z,101893.63
2018-05-06T01:14:31.532Z,101892.85
2018-05-06T01:17:00.559Z,101894.64
2018-05-06T01:19:28.808Z,101898.66
2018-05-06T01:21:57.832Z,101910.02
2018-05-06T01:24:26.885Z,101907.94
2018-05-06T01:26:55.154Z,101912.80
2018-05-06T01:29:23.429Z,101914.61
2018-05-06T01:31:52.466Z,101915.15
2018-05-06T01:34:20.730Z,101916.98
2018-05-06T01:36:49.007Z,101917.41
2018-05-06T01:39:18.121Z,101913.55
2018-05-06T01:41:47.143Z,101908.80
2018-05-06T01:44:15.419Z,101911.10
2018-05-06T01:46:44.510Z,101908.15
2018-05-06T01:49:13.621Z,101900.79
2018-05-06T01:51:42.667Z,101900.80
2018-05-06T01:54:10.954Z,101904.31
2018-05-06T01:56:39.254Z,101903.09
2018-05-06T01:59:07.581Z,101910.49
2018-05-06T02:01:35.913Z,101912.28
2018-05-06T02:04:05.020Z,101907.02
2018-05-06T02:06:33.226Z,101909.23
2018-05-06T02:09:01.789Z,101912.84
2018-05-06T02:11:30.802Z,101915.36
2018-05-06T02:13:59.824Z,101913.33
2018-05-06T02:16:28.095Z,101912.45
2018-05-06T02:18:56.349Z,101915.98
2018-05-06T02:21:24.620Z,101912.50
2018-05-06T02:23:52.931Z,101905.18
2018-05-06T02:26:21.284Z,101905.19
2018-05-06T02:28:49.539Z,101905.30
2018-05-06T02:31:17.831Z,101905.34
2018-05-06T02:33:46.169Z,101903.25
2018-05-06T02:36:14.454Z,101899.45
2018-05-06T02:38:42.770Z,101902.03
2018-05-06T02:41:11.032Z,101903.80
2018-05-06T02:43:39.289Z,101896.45
2018-05-06T02:46:08.366Z,101896.48
2018-05-06T02:48:36.623Z,101900.41
2018-05-06T02:51:04.920Z,101899.17
2018-05-06T02:53:33.192Z,101893.99
2018-05-06T02:56:01.465Z,101894.03
2018-05-06T02:58:30.484Z,101890.59
2018-05-06T03:00:58.799Z,101899.25
2018-05-06T03:03:27.048Z,101894.55
2018-05-06T03:05:55.303Z,101896.83
2018-05-06T03:08:23.594Z,101899.04
2018-05-06T03:10:51.859Z,101900.81
2018-05-06T03:13:20.132Z,101903.42
2018-05-06T03:15:48.482Z,101903.94
2018-05-06T03:18:16.747Z,101911.39
2018-05-06T03:20:45.842Z,101907.08
2018-05-06T03:23:14.142Z,101906.21
2018-05-06T03:25:42.411Z,101903.24
2018-05-06T03:28:10.684Z,101904.61
2018-05-06T03:30:40.730Z,101903.78
2018-05-06T03:33:09.018Z,101910.36
2018-05-06T03:35:37.259Z,101913.00
2018-05-06T03:38:05.577Z,101911.67
2018-05-06T03:40:34.633Z,101905.63
2018-05-06T03:43:03.086Z,101903.41
2018-05-06T03:45:32.143Z,101908.30
2018-05-06T03:48:00.399Z,101905.72
2018-05-06T03:50:28.675Z,101909.26
2018-05-06T03:52:56.945Z,101915.44
2018-05-06T03:55:25.218Z,101910.66
2018-05-06T03:58:10.908Z,101912.83
2018-05-06T04:00:46.900Z,101912.33
2018-05-06T04:03:15.186Z,101918.38
2018-05-06T04:05:43.497Z,101916.61
2018-05-06T04:08:11.741Z,101913.60
2018-05-06T04:10:40.030Z,101913.60
2018-05-06T04:13:08.313Z,101913.27
2018-05-06T04:15:36.579Z,101920.22
2018-05-06T04:18:04.866Z,101916.34
2018-05-06T04:20:33.966Z,101915.47
2018-05-06T04:23:02.987Z,101916.77
2018-05-06T04:25:31.256Z,101914.97
2018-05-06T04:28:00.308Z,101915.41
2018-05-06T04:30:28.581Z,101912.33
2018-05-06T04:32:56.857Z,101916.17
2018-05-06T04:35:28.958Z,101916.11
2018-05-06T04:37:57.526Z,101914.77
2018-05-06T04:40:25.790Z,101915.11
2018-05-06T04:42:54.867Z,101912.84
2018-05-06T04:45:23.718Z,101916.25
2018-05-06T04:47:52.125Z,101918.28
2018-05-06T04:50:20.368Z,101913.31
2018-05-06T04:52:48.647Z,101915.66
2018-05-06T04:55:16.932Z,101919.75
2018-05-06T04:57:45.209Z,101923.80
2018-05-06T05:00:14.338Z,101924.81
2018-05-06T05:02:42.591Z,101919.73
2018-05-06T05:05:10.860Z,101918.88
2018-05-06T05:07:39.131Z,101923.20
2018-05-06T05:10:07.377Z,101923.62
2018-05-06T05:12:36.487Z,101918.04
2018-05-06T05:15:04.855Z,101924.15
2018-05-06T05:17:33.186Z,101918.35
2018-05-06T05:20:01.458Z,101915.71
2018-05-06T05:22:30.500Z,101922.55
2018-05-06T05:24:58.784Z,101922.79
2018-05-06T05:27:27.060Z,101927.30
2018-05-06T05:29:55.536Z,101929.61
2018-05-06T05:32:23.776Z,101930.51
2018-05-06T05:34:52.050Z,101922.81
2018-05-06T05:37:20.342Z,101919.00
2018-05-06T05:39:48.603Z,101922.59
2018-05-06T05:42:17.762Z,101926.22
2018-05-06T05:44:46.035Z,101925.81
2018-05-06T05:47:14.314Z,101921.72
2018-05-06T05:49:42.585Z,101925.15
2018-05-06T05:52:11.630Z,101924.74
2018-05-06T05:54:39.996Z,101921.05
2018-05-06T05:57:08.257Z,101925.81
2018-05-06T05:59:36.516Z,101932.71
2018-05-06T06:02:04.771Z,101928.36
2018-05-06T06:04:33.050Z,101931.65
2018-05-06T06:07:02.087Z,101929.72
2018-05-06T06:09:30.353Z,101930.67
2018-05-06T06:11:58.615Z,101924.59
2018-05-06T06:14:26.890Z,101921.74
2018-05-06T06:16:55.153Z,101924.75
2018-05-06T06:19:23.414Z,101935.89
2018-05-06T06:21:51.687Z,101933.78
2018-05-06T06:24:20.721Z,101938.77
2018-05-06T06:26:49.004Z,101935.68
2018-05-06T06:29:17.401Z,101930.09
2018-05-06T06:31:45.670Z,101936.53
2018-05-06T06:34:14.703Z,101930.92
2018-05-06T06:36:43.042Z,101929.16
2018-05-06T06:39:12.094Z,101933.68
2018-05-06T06:41:41.131Z,101937.48
2018-05-06T06:44:09.408Z,101937.28
2018-05-06T06:46:37.671Z,101941.97
2018-05-06T06:49:06.731Z,101940.30
2018-05-06T06:51:35.080Z,101948.75
2018-05-06T06:54:04.101Z,101941.19
2018-05-06T06:56:32.365Z,101935.81
2018-05-06T06:59:01.403Z,101940.84
2018-05-06T07:01:29.651Z,101935.14
2018-05-06T07:03:58.669Z,101947.31
2018-05-06T07:06:27.711Z,101942.34
2018-05-06T07:08:55.973Z,101955.52
2018-05-06T07:11:24.363Z,101957.97
2018-05-06T07:13:52.664Z,101951.33
2018-05-06T07:16:20.967Z,101944.39
2018-05-06T07:18:49.253Z,101943.05
2018-05-06T07:21:17.521Z,101940.89
2018-05-06T07:23:45.807Z,101940.03
2018-05-06T07:26:17.814Z,101947.17
2018-05-06T07:28:46.139Z,101946.13
2018-05-06T07:31:14.482Z,101941.41
2018-05-06T07:33:42.776Z,101943.84
2018-05-06T07:36:11.036Z,101946.64
2018-05-06T07:38:40.070Z,101942.51
2018-05-06T07:41:08.331Z,101944.89
2018-05-06T07:43:37.359Z,101944.16
2018-05-06T07:46:05.630Z,101944.00
2018-05-06T07:48:34.720Z,101938.34
2018-05-06T07:51:02.989Z,101937.75
2018-05-06T07:53:31.233Z,101936.13
2018-05-06T07:56:00.405Z,101937.35
2018-05-06T07:58:28.683Z,101938.40
2018-05-06T08:00:56.932Z,101942.52
2018-05-06T08:03:25.234Z,101938.16
2018-05-06T08:05:53.510Z,101944.44
2018-05-06T08:08:21.777Z,101934.83
2018-05-06T08:10:50.156Z,101943.28
2018-05-06T08:13:19.247Z,101933.43
2018-05-06T08:15:47.577Z,101941.80
2018-05-06T08:18:15.923Z,101938.97
2018-05-06T08:20:44.199Z,101942.19
2018-05-06T08:23:12.471Z,101941.21
2018-05-06T08:25:40.943Z,101934.90
2018-05-06T08:28:10.040Z,101937.60
2018-05-06T08:30:38.280Z,101933.74
2018-05-06T08:33:06.553Z,101929.50
2018-05-06T08:35:34.846Z,101926.77
2018-05-06T08:38:03.091Z,101940.28
2018-05-06T08:40:31.388Z,101932.53
2018-05-06T08:42:59.653Z,101934.87
2018-05-06T08:45:27.947Z,101930.96
2018-05-06T08:47:56.294Z,101933.16
2018-05-06T08:50:24.585Z,101935.37
2018-05-06T08:52:52.851Z,101935.91
2018-05-06T08:55:24.012Z,101931.96
2018-05-06T08:57:53.022Z,101938.19
2018-05-06T09:00:21.343Z,101939.06
2018-05-06T09:02:49.618Z,101942.56
2018-05-06T09:05:17.918Z,101943.69
2018-05-06T09:07:46.206Z,101942.22
2018-05-06T09:10:14.697Z,101942.61
2018-05-06T09:12:42.970Z,101943.48
2018-05-06T09:15:11.979Z,101936.16
2018-05-06T09:17:41.037Z,101933.74
2018-05-06T09:20:09.293Z,101921.73
2018-05-06T09:22:37.574Z,101921.45
2018-05-06T09:25:05.871Z,101910.39
2018-05-06T09:27:34.157Z,101915.75
2018-05-06T09:30:03.182Z,101907.94
2018-05-06T09:32:31.459Z,101909.70
2018-05-06T09:34:59.712Z,101905.36
2018-05-06T09:37:28.012Z,101912.33
2018-05-06T09:39:56.275Z,101898.28
2018-05-06T09:42:24.533Z,101894.84
2018-05-06T09:44:52.802Z,101899.33
2018-05-06T09:47:21.067Z,101894.43
2018-05-06T09:49:49.316Z,101894.44
2018-05-06T09:52:17.605Z,101885.74
2018-05-06T09:54:45.914Z,101886.36
2018-05-06T09:57:14.181Z,101885.81
2018-05-06T09:59:42.460Z,101889.34
2018-05-06T10:02:10.730Z,101885.26
2018-05-06T10:04:39.016Z,101875.80
2018-05-06T10:07:08.049Z,101876.53
2018-05-06T10:09:36.336Z,101871.34
2018-05-06T20:18:04.552Z,101583.09
2018-05-06T20:20:32.834Z,101587.36
2018-05-06T20:23:01.850Z,101590.25
2018-05-06T20:25:30.161Z,101591.92
2018-05-06T20:27:58.513Z,101585.33
2018-05-06T20:30:27.627Z,101591.39
2018-05-06T20:32:56.686Z,101599.93
2018-05-06T20:35:24.960Z,101593.86
2018-05-06T20:37:53.204Z,101601.89
2018-05-06T20:40:22.419Z,101610.86
2018-05-06T20:42:51.481Z,101607.19
2018-05-06T20:45:19.755Z,101605.15
2018-05-06T20:47:48.094Z,101610.25
2018-05-06T20:50:16.545Z,101613.86
2018-05-06T20:52:44.860Z,101615.39
2018-05-06T20:55:13.199Z,101610.36
2018-05-06T20:57:41.426Z,101617.30
2018-05-06T21:00:10.547Z,101615.78
2018-05-06T21:02:38.842Z,101619.89
2018-05-06T21:05:07.095Z,101617.90
2018-05-06T21:07:35.362Z,101622.36
2018-05-06T21:10:04.409Z,101621.96
2018-05-06T21:12:32.671Z,101623.34
2018-05-06T21:15:00.947Z,101623.81
2018-05-06T21:17:30.005Z,101630.34
2018-05-06T21:19:58.252Z,101630.56
2018-05-06T21:22:26.521Z,101629.06
2018-05-06T21:24:54.820Z,101630.89
2018-05-06T21:27:23.836Z,101630.38
2018-05-06T21:29:52.874Z,101630.61
2018-05-06T21:32:22.187Z,101632.18
2018-05-06T21:34:50.470Z,101628.56
2018-05-06T21:37:18.860Z,101626.25
2018-05-06T21:39:47.274Z,101633.48
2018-05-06T21:42:16.364Z,101635.77
2018-05-06T21:44:44.656Z,101636.73
2018-05-06T21:47:12.928Z,101635.12
2018-05-06T21:49:41.986Z,101632.84
2018-05-06T21:52:10.290Z,101637.44
2018-05-06T21:54:38.566Z,101638.53
2018-05-06T21:57:07.021Z,101646.42
2018-05-06T21:59:35.297Z,101645.77
2018-05-06T22:02:04.342Z,101653.61
2018-05-06T22:04:32.612Z,101650.07
2018-05-06T22:07:00.869Z,101643.85
2018-05-06T22:09:29.934Z,101649.28
2018-05-06T22:11:58.179Z,101648.77
2018-05-06T22:14:27.225Z,101646.05
2018-05-06T22:16:55.506Z,101656.00
2018-05-06T22:19:23.761Z,101653.22
2018-05-06T22:21:52.793Z,101649.89
2018-05-06T22:24:21.073Z,101652.88
2018-05-06T22:26:50.120Z,101651.44
2018-05-06T22:29:18.413Z,101657.63
2018-05-06T22:31:46.782Z,101652.41
2018-05-06T22:34:15.058Z,101652.60
2018-05-06T22:36:43.306Z,101647.22
2018-05-06T22:39:11.575Z,101652.22
2018-05-06T22:41:40.991Z,101649.20
2018-05-06T22:44:09.976Z,101650.70
2018-05-06T22:46:38.257Z,101646.75
2018-05-06T22:49:06.541Z,101649.45
2018-05-06T22:51:34.832Z,101653.45
2018-05-06T22:54:03.086Z,101652.80
2018-05-06T22:56:31.339Z,101651.88
2018-05-06T22:58:59.600Z,101651.33
2018-05-06T23:01:27.857Z,101645.30
2018-05-06T23:03:56.131Z,101632.48
2018-05-06T23:06:24.423Z,101643.13
2018-05-06T23:08:52.675Z,101642.24
2018-05-06T23:11:20.953Z,101647.48
2018-05-06T23:13:49.372Z,101646.28
2018-05-06T23:16:18.493Z,101655.19
2018-05-06T23:18:46.773Z,101652.29
2018-05-06T23:21:15.084Z,101653.89
2018-05-06T23:23:43.360Z,101647.52
2018-05-06T23:26:11.637Z,101648.87
2018-05-06T23:28:39.906Z,101647.37
2018-05-06T23:31:08.171Z,101644.59
2018-05-06T23:33:37.194Z,101642.03
2018-05-06T23:36:05.494Z,101638.52
2018-05-06T23:38:33.759Z,101646.56
2018-05-06T23:41:02.791Z,101646.13
2018-05-06T23:43:31.057Z,101651.47
2018-05-06T23:46:00.107Z,101646.56
2018-05-06T23:48:28.360Z,101645.62
2018-05-06T23:50:57.383Z,101645.73
2018-05-06T23:53:25.658Z,101640.36
2018-05-06T23:55:54.707Z,101643.45
2018-05-06T23:58:23.147Z,101639.52
